createdAt,value
2023-04-28T00:02:56.982Z,552.61
2023-04-28T00:06:05.304Z,684.55
2023-04-28T00:09:12.782Z,687.72
2023-04-28T00:12:18.480Z,648.91
2023-04-28T00:15:25.161Z,629.70
2023-04-28T00:18:30.982Z,622.80
2023-04-28T00:21:39.986Z,636.69
2023-04-28T00:24:45.575Z,644.83
2023-04-28T00:27:52.006Z,604.36
2023-04-28T00:30:57.696Z,459.77
2023-04-28T00:34:04.163Z,433.65
2023-04-28T00:37:12.610Z,437.73
2023-04-28T00:40:19.087Z,435.52
2023-04-28T00:43:24.841Z,455.47
2023-04-28T00:46:36.334Z,473.47
2023-04-28T00:49:42.146Z,539.29
2023-04-28T00:52:51.863Z,589.79
2023-04-28T00:55:57.814Z,613.94
2023-04-28T00:59:04.351Z,553.47
2023-04-28T01:02:17.546Z,607.63
2023-04-28T01:05:26.016Z,642.54
2023-04-28T01:08:36.414Z,625.97
2023-04-28T01:11:45.358Z,573.57
2023-04-28T01:14:57.791Z,570.82
2023-04-28T01:18:04.743Z,536.00
2023-04-28T01:21:11.365Z,509.07
2023-04-28T01:24:20.437Z,488.74
2023-04-28T01:27:27.256Z,496.72
2023-04-28T01:30:33.142Z,498.61
2023-04-28T01:33:39.677Z,508.17
2023-04-28T01:36:45.216Z,524.46
2023-04-28T01:39:54.352Z,528.43
2023-04-28T01:42:59.965Z,531.87
2023-04-28T01:46:06.930Z,568.05
2023-04-28T01:49:12.673Z,609.23
2023-04-28T01:52:22.900Z,630.77
2023-04-28T01:55:31.341Z,632.67
2023-04-28T01:58:38.835Z,634.52
2023-04-28T02:01:45.406Z,618.26
2023-04-28T02:04:52.131Z,617.96
2023-04-28T02:07:59.170Z,614.31
2023-04-28T02:11:08.328Z,629.98
2023-04-28T02:14:14.693Z,638.58
2023-04-28T02:17:21.413Z,634.96
2023-04-28T02:20:27.340Z,641.70
2023-04-28T02:23:34.305Z,640.92
2023-04-28T02:26:42.599Z,638.97
2023-04-28T02:29:49.128Z,637.40
2023-04-28T02:32:55.871Z,645.53
2023-04-28T02:36:03.373Z,647.61
2023-04-28T02:39:09.091Z,661.45
2023-04-28T02:42:19.886Z,650.29
2023-04-28T02:45:25.458Z,640.67
2023-04-28T02:48:31.936Z,636.22
2023-04-28T02:51:37.565Z,625.74
2023-04-28T02:54:44.174Z,621.77
2023-04-28T02:57:52.573Z,615.94
2023-04-28T03:00:59.244Z,606.31
2023-04-28T03:04:05.235Z,602.06
2023-04-28T03:07:12.987Z,592.03
2023-04-28T03:10:18.740Z,591.43
2023-04-28T03:13:30.121Z,592.80
2023-04-28T03:16:37.932Z,586.87
2023-04-28T03:19:44.480Z,585.68
2023-04-28T03:22:50.234Z,575.93
2023-04-28T03:25:57.055Z,566.45
2023-04-28T03:29:06.358Z,572.60
2023-04-28T03:32:13.430Z,569.68
2023-04-28T03:35:19.303Z,565.02
2023-04-28T03:38:25.714Z,552.51
2023-04-28T03:41:31.739Z,544.21
2023-04-28T03:44:59.414Z,525.90
2023-04-28T03:48:05.083Z,531.13
2023-04-28T03:51:13.022Z,535.73
2023-04-28T03:54:18.647Z,539.93
2023-04-28T03:57:25.577Z,546.58
2023-04-28T04:00:34.275Z,557.48
2023-04-28T04:03:41.425Z,583.21
2023-04-28T04:06:47.764Z,582.64
2023-04-28T04:09:54.469Z,562.50
2023-04-28T04:13:00.189Z,552.62
2023-04-28T04:16:10.789Z,543.26
2023-04-28T04:19:17.010Z,543.38
2023-04-28T04:22:24.618Z,535.66
2023-04-28T04:25:30.864Z,533.41
2023-04-28T04:28:37.516Z,544.44
2023-04-28T04:31:48.257Z,538.46
2023-04-28T04:34:54.841Z,533.01
2023-04-28T04:38:01.557Z,538.15
2023-04-28T04:41:08.336Z,532.75
2023-04-28T04:44:14.617Z,554.53
2023-04-28T04:47:28.574Z,539.83
2023-04-28T04:50:34.152Z,522.32
2023-04-28T04:53:40.737Z,518.04
2023-04-28T04:56:46.688Z,513.29
2023-04-28T04:59:57.948Z,514.01
2023-04-28T05:03:07.262Z,513.35
2023-04-28T05:06:13.822Z,510.20
2023-04-28T05:09:23.305Z,498.15
2023-04-28T05:12:29.673Z,489.62
2023-04-28T05:15:35.416Z,481.64
2023-04-28T05:19:19.905Z,470.68
2023-04-28T05:22:26.306Z,455.22
2023-04-28T05:25:33.052Z,447.48
2023-04-28T05:28:38.966Z,447.25
2023-04-28T05:31:45.418Z,454.37
2023-04-28T05:34:53.690Z,443.31
2023-04-28T05:38:00.548Z,439.93
2023-04-28T05:41:06.341Z,449.68
2023-04-28T05:44:13.125Z,443.55
2023-04-28T05:47:18.797Z,433.72
2023-04-28T05:50:27.921Z,441.85
2023-04-28T05:53:33.643Z,435.76
2023-04-28T05:56:40.850Z,439.67
2023-04-28T05:59:47.517Z,457.79
2023-04-28T06:02:54.392Z,420.25
2023-04-28T06:06:05.169Z,453.84
2023-04-28T06:09:13.669Z,417.74
2023-04-28T06:12:19.759Z,397.91
2023-04-28T06:15:26.292Z,393.72
2023-04-28T06:18:34.676Z,389.13
2023-04-28T06:21:45.100Z,401.24
2023-04-28T06:24:50.724Z,400.18
2023-04-28T06:28:01.429Z,404.75
2023-04-28T06:31:07.121Z,414.05
2023-04-28T06:34:13.824Z,414.07
2023-04-28T06:37:22.374Z,426.47
2023-04-28T06:40:28.814Z,454.37
2023-04-28T06:43:36.588Z,402.99
2023-04-28T06:46:53.976Z,369.93
2023-04-28T06:49:59.611Z,381.93
2023-04-28T06:53:09.003Z,356.64
2023-04-28T06:56:14.700Z,349.68
2023-04-28T06:59:21.281Z,370.25
2023-04-28T07:02:27.405Z,363.81
2023-04-28T07:05:34.427Z,347.31
2023-04-28T07:08:42.953Z,345.96
2023-04-28T07:11:49.382Z,335.35
2023-04-28T07:14:56.110Z,305.06
2023-04-28T07:18:02.784Z,334.27
2023-04-28T07:21:09.059Z,296.14
2023-04-28T07:24:18.629Z,269.08
2023-04-28T07:27:24.552Z,266.35
2023-04-28T07:30:31.109Z,252.19
2023-04-28T07:33:36.725Z,249.06
2023-04-28T07:36:43.404Z,254.06
2023-04-28T07:39:51.988Z,232.34
2023-04-28T07:42:58.561Z,223.47
2023-04-28T07:46:04.264Z,221.99
2023-04-28T07:49:11.129Z,209.09
2023-04-28T07:52:16.806Z,207.53
2023-04-28T07:55:25.901Z,197.69
2023-04-28T07:58:31.686Z,181.53
2023-04-28T08:01:38.181Z,152.17
2023-04-28T08:04:44.824Z,140.69
2023-04-28T08:07:51.400Z,153.10
2023-04-28T08:10:59.601Z,170.70
2023-04-28T08:14:06.296Z,166.29
2023-04-28T08:17:12.296Z,164.02
2023-04-28T08:20:21.657Z,143.45
2023-04-28T08:23:32.119Z,136.23
2023-04-28T08:26:41.511Z,134.57
2023-04-28T08:29:47.232Z,124.92
2023-04-28T08:32:54.367Z,117.12
2023-04-28T08:36:00.351Z,99.93
2023-04-28T08:39:08.800Z,111.58
2023-04-28T08:42:18.081Z,104.71
2023-04-28T08:45:28.476Z,96.61
2023-04-28T08:48:45.329Z,97.41
2023-04-28T08:52:02.619Z,91.83
2023-04-28T08:55:13.353Z,93.79
2023-04-28T08:58:23.482Z,101.15
2023-04-28T09:01:29.225Z,94.53
2023-04-28T09:04:36.073Z,91.88
2023-04-28T09:07:42.444Z,87.25
2023-04-28T09:10:48.834Z,81.17
2023-04-28T09:14:15.480Z,77.15
2023-04-28T09:17:22.129Z,76.29
2023-04-28T09:20:30.059Z,85.40
2023-04-28T09:23:37.251Z,86.97
2023-04-28T09:26:55.441Z,76.68
2023-04-28T09:30:05.046Z,76.68
2023-04-28T09:33:11.565Z,72.98
2023-04-28T09:36:30.908Z,72.55
2023-04-28T09:39:36.667Z,58.83
2023-04-28T09:42:46.898Z,57.58
2023-04-28T09:45:55.317Z,57.20
2023-04-28T09:49:05.014Z,56.23
2023-04-28T09:52:17.369Z,56.92
2023-04-28T09:55:24.091Z,59.40
2023-04-28T09:58:33.109Z,60.52
2023-04-28T10:01:46.539Z,54.56
2023-04-28T10:04:53.999Z,53.69
2023-04-28T10:08:01.081Z,58.04
2023-04-28T10:11:07.555Z,62.45
2023-04-28T10:14:15.631Z,60.18
2023-04-28T10:17:29.818Z,58.72
2023-04-28T10:20:37.837Z,60.78
2023-04-28T10:24:16.598Z,57.52
2023-04-28T10:27:24.636Z,50.88
2023-04-28T10:30:31.573Z,53.81
2023-04-28T10:33:41.468Z,57.28
2023-04-28T10:36:56.190Z,56.46
2023-04-28T10:40:39.021Z,56.41
2023-04-28T10:43:44.693Z,51.05
2023-04-28T10:47:05.107Z,52.16
2023-04-28T10:50:15.114Z,48.16
2023-04-28T10:53:21.620Z,48.33
2023-04-28T10:56:31.512Z,47.25
2023-04-28T10:59:37.908Z,47.81
2023-04-28T11:02:46.433Z,46.42
2023-04-28T11:06:28.831Z,44.64
2023-04-28T11:09:52.707Z,41.44
2023-04-28T11:13:28.718Z,41.61
2023-04-28T11:16:35.551Z,39.88
2023-04-28T11:19:48.841Z,37.56
2023-04-28T11:22:57.907Z,38.07
2023-04-28T11:26:04.238Z,40.66
2023-04-28T11:29:10.899Z,37.96
2023-04-28T11:32:17.385Z,37.55
2023-04-28T11:35:23.099Z,38.79
2023-04-28T11:38:32.220Z,38.14
2023-04-28T11:41:38.562Z,35.17
2023-04-28T11:44:45.078Z,37.71
2023-04-28T11:47:50.824Z,36.74
2023-04-28T11:50:57.623Z,38.14
2023-04-28T11:54:07.846Z,37.78
2023-04-28T11:57:23.433Z,35.86
2023-04-28T12:00:31.681Z,32.56
2023-04-28T12:03:46.838Z,31.80
2023-04-28T12:07:07.226Z,37.86
2023-04-28T12:10:20.071Z,39.61
2023-04-28T12:13:25.839Z,37.33
2023-04-28T12:16:44.380Z,33.28
2023-04-28T12:19:50.034Z,34.78
2023-04-28T12:22:57.221Z,34.03
2023-04-28T12:26:06.805Z,34.02
2023-04-28T12:29:14.033Z,31.45
2023-04-28T12:32:20.626Z,32.81
2023-04-28T12:35:28.616Z,31.33
2023-04-28T12:38:34.316Z,34.80
2023-04-28T12:41:44.863Z,34.02
2023-04-28T12:44:50.562Z,32.95
2023-04-28T12:47:57.269Z,38.72
2023-04-28T12:51:03.399Z,38.92
2023-04-28T12:54:10.096Z,47.57
2023-04-28T12:57:19.876Z,33.67
2023-04-28T13:00:26.706Z,35.93
2023-04-28T13:03:32.531Z,36.28
2023-04-28T13:06:39.263Z,35.29
2023-04-28T13:09:45.805Z,36.58
2023-04-28T13:12:55.410Z,35.08
2023-04-28T13:16:01.285Z,39.63
2023-04-28T13:19:11.055Z,36.42
2023-04-28T13:22:16.961Z,38.93
2023-04-28T13:25:23.409Z,38.01
2023-04-28T13:28:31.844Z,35.21
2023-04-28T13:31:38.393Z,38.69
2023-04-28T13:34:44.333Z,33.98
2023-04-28T13:37:50.924Z,38.45
2023-04-28T13:40:56.996Z,38.10
2023-04-28T13:44:06.196Z,40.56
2023-04-28T13:47:12.813Z,38.22
2023-04-28T13:50:19.520Z,38.14
2023-04-28T13:53:25.354Z,35.28
2023-04-28T13:56:33.077Z,36.39
2023-04-28T13:59:41.649Z,35.62
2023-04-28T14:02:49.879Z,39.20
2023-04-28T14:06:00.138Z,38.09
2023-04-28T14:09:07.045Z,35.94
2023-04-28T14:12:14.052Z,37.22
2023-04-28T14:15:25.381Z,40.83
2023-04-28T14:18:34.588Z,41.54
2023-04-28T14:21:41.771Z,40.10
2023-04-28T14:24:47.711Z,43.27
2023-04-28T14:27:57.164Z,41.29
2023-04-28T14:31:09.324Z,39.86
2023-04-28T14:34:15.997Z,39.15
2023-04-28T14:37:21.850Z,38.02
2023-04-28T14:40:28.514Z,37.78
2023-04-28T14:43:34.322Z,36.65
2023-04-28T14:46:43.861Z,37.72
2023-04-28T14:49:51.453Z,38.50
2023-04-28T14:53:05.662Z,37.64
2023-04-28T14:59:23.445Z,39.38
2023-04-28T15:02:31.997Z,37.47
2023-04-28T15:05:38.616Z,37.28
2023-04-28T15:08:44.361Z,38.55
2023-04-28T15:11:50.972Z,37.44
2023-04-28T15:14:56.763Z,40.26
2023-04-28T15:18:05.965Z,41.89
2023-04-28T15:21:11.786Z,44.27
2023-04-28T15:24:21.676Z,40.54
2023-04-28T15:27:27.305Z,37.86
2023-04-28T15:30:34.440Z,35.83
2023-04-28T15:33:42.766Z,39.56
2023-04-28T15:36:49.191Z,38.56
2023-04-28T15:39:54.756Z,41.35
2023-04-28T15:43:01.409Z,41.57
2023-04-28T15:46:11.280Z,40.36
2023-04-28T15:49:21.444Z,39.86
2023-04-28T15:52:27.277Z,38.61
2023-04-28T15:55:33.765Z,38.85
2023-04-28T15:58:40.925Z,47.72
2023-04-28T16:01:47.726Z,44.68
2023-04-28T16:04:57.235Z,42.87
2023-04-28T16:08:03.701Z,38.93
2023-04-28T16:11:09.416Z,40.45
2023-04-28T16:14:16.192Z,44.60
2023-04-28T16:17:22.398Z,50.12
2023-04-28T16:20:31.673Z,50.40
2023-04-28T16:23:38.024Z,50.82
2023-04-28T16:26:45.422Z,64.47
2023-04-28T16:29:51.269Z,49.52
2023-04-28T16:32:58.783Z,44.45
2023-04-28T16:36:07.399Z,54.25
2023-04-28T16:39:13.896Z,164.33
2023-04-28T16:42:21.128Z,609.11
2023-04-28T16:45:27.669Z,632.30
2023-04-28T16:48:33.414Z,122.11
2023-04-28T16:51:42.384Z,64.23
2023-04-28T16:54:48.140Z,86.97
2023-04-28T16:57:55.873Z,158.56
2023-04-28T17:01:01.691Z,141.44
2023-04-28T17:04:08.250Z,98.57
2023-04-28T17:07:16.424Z,202.38
2023-04-28T17:10:23.062Z,1577.60
2023-04-28T17:13:28.728Z,415.27
2023-04-28T17:16:35.538Z,122.16
2023-04-28T17:19:42.680Z,52.72
2023-04-28T17:22:53.299Z,52.04
2023-04-28T17:25:58.924Z,64.93
2023-04-28T17:29:07.151Z,72.57
2023-04-28T17:32:12.756Z,68.70
2023-04-28T17:35:19.186Z,65.59
2023-04-28T17:38:27.449Z,77.44
2023-04-28T17:41:34.217Z,69.24
2023-04-28T17:44:39.865Z,72.52
2023-04-28T17:47:46.899Z,185.65
2023-04-28T17:50:52.768Z,196.42
2023-04-28T17:54:02.460Z,149.45
2023-04-28T17:57:08.082Z,94.46
2023-04-28T18:00:17.285Z,120.48
2023-04-28T18:03:22.962Z,168.57
2023-04-28T18:06:30.395Z,191.26
2023-04-28T18:09:38.846Z,167.13
2023-04-28T18:12:45.351Z,135.66
2023-04-28T18:15:50.945Z,143.47
2023-04-28T18:18:57.461Z,137.11
2023-04-28T18:22:03.184Z,152.55
2023-04-28T18:25:13.573Z,124.34
2023-04-28T18:28:19.136Z,128.69
2023-04-28T18:31:25.701Z,106.12
2023-04-28T18:34:31.470Z,135.67
2023-04-28T18:37:38.056Z,116.36
2023-04-28T18:40:46.449Z,126.40
2023-04-28T18:43:53.022Z,112.78
2023-04-28T18:46:58.836Z,86.31
2023-04-28T18:50:05.796Z,88.83
2023-04-28T18:53:11.717Z,88.76
2023-04-28T18:56:21.325Z,90.22
2023-04-28T18:59:27.568Z,90.46
2023-04-28T19:02:36.635Z,91.14
2023-04-28T19:05:45.844Z,94.66
2023-04-28T19:08:52.692Z,99.83
2023-04-28T19:12:00.990Z,100.54
2023-04-28T19:15:08.965Z,106.67
2023-04-28T19:18:16.058Z,121.39
2023-04-28T19:21:22.646Z,104.60
2023-04-28T19:24:29.508Z,133.86
2023-04-28T19:27:43.154Z,191.20
2023-04-28T19:30:48.795Z,199.79
2023-04-28T19:33:55.380Z,189.47
2023-04-28T19:37:00.976Z,176.48
2023-04-28T19:40:08.993Z,176.03
2023-04-28T19:43:17.760Z,164.15
2023-04-28T19:46:24.428Z,172.10
2023-04-28T19:49:30.343Z,194.70
2023-04-28T19:52:36.894Z,343.78
2023-04-28T19:55:42.638Z,457.36
2023-04-28T19:58:51.873Z,319.56
2023-04-28T20:01:57.944Z,210.19
2023-04-28T20:05:04.698Z,172.06
2023-04-28T20:08:10.462Z,170.12
2023-04-28T20:11:17.757Z,228.31
2023-04-28T20:14:26.478Z,254.36
2023-04-28T20:17:33.120Z,241.36
2023-04-28T20:20:38.821Z,252.80
2023-04-28T20:23:45.404Z,310.27
2023-04-28T20:26:52.093Z,328.80
2023-04-28T20:30:01.231Z,289.16
2023-04-28T20:33:07.737Z,254.11
2023-04-28T20:36:16.048Z,215.19
2023-04-28T20:39:21.796Z,283.49
2023-04-28T20:42:28.962Z,370.75
2023-04-28T20:45:37.441Z,405.56
2023-04-28T20:48:44.062Z,159.27
2023-04-28T20:51:49.883Z,408.47
2023-04-28T20:54:56.901Z,228.41
2023-04-28T20:58:02.445Z,109.67
2023-04-28T21:01:11.586Z,158.75
2023-04-28T21:04:17.535Z,272.77
2023-04-28T21:07:24.309Z,441.94
2023-04-28T21:10:29.908Z,386.99
2023-04-28T21:13:36.445Z,392.65
2023-04-28T21:16:45.235Z,253.50
2023-04-28T21:19:52.084Z,208.73
2023-04-28T21:22:57.848Z,172.27
2023-04-28T21:26:04.254Z,281.43
2023-04-28T21:29:09.956Z,186.06
2023-04-28T21:32:18.965Z,203.77
2023-04-28T21:35:25.545Z,195.74
2023-04-28T21:38:32.183Z,213.77
2023-04-28T21:41:38.570Z,169.00
2023-04-28T21:44:45.038Z,194.74
2023-04-28T21:47:53.357Z,153.28
2023-04-28T21:50:59.961Z,118.55
2023-04-28T21:54:05.973Z,164.64
2023-04-28T21:57:12.756Z,183.80
2023-04-28T22:00:18.468Z,169.00
2023-04-28T22:03:31.652Z,152.23
2023-04-28T22:06:38.417Z,129.62
2023-04-28T22:09:45.021Z,132.81
2023-04-28T22:12:50.662Z,130.74
2023-04-28T22:15:57.327Z,136.53
2023-04-28T22:19:05.656Z,133.92
2023-04-28T22:22:12.682Z,120.89
2023-04-28T22:25:18.541Z,131.86
2023-04-28T22:28:25.080Z,154.71
2023-04-28T22:31:30.824Z,132.97
2023-04-28T22:34:40.153Z,126.39
2023-04-28T22:37:46.039Z,142.86
2023-04-28T22:40:52.831Z,136.00
2023-04-28T22:43:58.319Z,136.28
2023-04-28T22:47:05.234Z,138.08
2023-04-28T22:50:15.049Z,150.35
2023-04-28T22:53:22.464Z,188.84
2023-04-28T22:56:28.059Z,245.90
2023-04-28T22:59:36.803Z,296.14
2023-04-28T23:02:42.649Z,321.73
2023-04-28T23:05:52.547Z,346.63
2023-04-28T23:08:58.793Z,367.39
2023-04-28T23:12:05.627Z,357.79
2023-04-28T23:15:12.237Z,341.79
2023-04-28T23:18:18.709Z,335.80
2023-04-28T23:21:28.954Z,320.14
2023-04-28T23:24:37.330Z,324.54
2023-04-28T23:27:43.398Z,271.97
2023-04-28T23:30:49.996Z,191.83
2023-04-28T23:33:55.790Z,177.14
2023-04-28T23:37:04.813Z,184.17
2023-04-28T23:40:12.699Z,170.94
2023-04-28T23:43:19.137Z,162.89
2023-04-28T23:46:24.684Z,165.84
2023-04-28T23:49:31.375Z,159.46
2023-04-28T23:52:40.562Z,148.36
2023-04-28T23:55:47.610Z,143.09
2023-04-28T23:58:53.181Z,138.25
